createdAt,value
2023-03-31T00:00:21.559Z,2.90
2023-03-31T00:03:50.516Z,2.60
2023-03-31T00:06:32.450Z,2.70
2023-03-31T00:09:11.486Z,2.50
2023-03-31T00:12:05.973Z,2.50
2023-03-31T00:14:57.398Z,2.70
2023-03-31T00:20:05.837Z,2.90
2023-03-31T00:22:38.722Z,2.30
2023-03-31T00:25:16.731Z,2.40
2023-03-31T00:27:56.449Z,2.70
2023-03-31T00:30:44.900Z,6.30
2023-03-31T00:33:13.921Z,5.40
2023-03-31T00:35:46.236Z,3.00
2023-03-31T00:38:24.857Z,3.20
2023-03-31T00:41:04.425Z,5.60
2023-03-31T00:44:01.074Z,4.90
2023-03-31T00:46:51.219Z,3.80
2023-03-31T00:49:48.008Z,4.50
2023-03-31T00:52:41.864Z,4.60
2023-03-31T00:55:14.324Z,3.70
2023-03-31T00:57:46.727Z,4.00
2023-03-31T01:00:28.010Z,3.90
2023-03-31T01:03:01.743Z,3.90
2023-03-31T01:05:44.574Z,4.30
2023-03-31T01:08:27.682Z,4.90
2023-03-31T01:11:12.492Z,5.20
2023-03-31T01:14:11.306Z,5.10
2023-03-31T01:16:44.774Z,5.00
2023-03-31T01:19:22.586Z,5.10
2023-03-31T01:22:17.294Z,5.00
2023-03-31T01:25:12.276Z,4.60
2023-03-31T01:28:01.530Z,5.50
2023-03-31T01:30:49.997Z,5.00
2023-03-31T01:33:41.338Z,4.40
2023-03-31T01:36:26.039Z,4.90
2023-03-31T01:42:17.656Z,5.80
2023-03-31T01:45:16.436Z,5.40
2023-03-31T01:47:52.158Z,5.00
2023-03-31T01:50:27.452Z,5.00
2023-03-31T01:53:26.170Z,5.20
2023-03-31T01:56:03.169Z,5.30
2023-03-31T01:58:40.751Z,4.80
2023-03-31T02:01:17.058Z,5.40
2023-03-31T02:03:53.697Z,4.70
2023-03-31T02:06:28.737Z,4.70
2023-03-31T02:09:05.148Z,4.70
2023-03-31T02:11:36.487Z,4.50
2023-03-31T02:14:09.053Z,4.80
2023-03-31T02:16:47.502Z,4.80
2023-03-31T02:19:25.115Z,4.20
2023-03-31T02:21:59.499Z,5.10
2023-03-31T02:24:31.620Z,4.70
2023-03-31T02:27:32.301Z,4.80
2023-03-31T02:30:21.252Z,4.90
2023-03-31T02:32:55.186Z,6.10
2023-03-31T02:35:28.478Z,5.40
2023-03-31T02:38:02.485Z,4.60
2023-03-31T02:40:37.003Z,5.00
2023-03-31T02:43:10.176Z,4.60
2023-03-31T02:45:54.275Z,4.70
2023-03-31T02:48:34.719Z,4.90
2023-03-31T02:51:14.632Z,6.00
2023-03-31T02:54:00.120Z,7.60
2023-03-31T02:59:24.392Z,6.30
2023-03-31T03:02:33.358Z,6.80
2023-03-31T03:05:21.784Z,5.90
2023-03-31T03:08:34.617Z,4.90
2023-03-31T03:11:26.178Z,5.70
2023-03-31T03:14:09.789Z,5.90
2023-03-31T03:16:41.683Z,5.80
2023-03-31T03:19:11.304Z,5.70
2023-03-31T03:21:52.829Z,6.00
2023-03-31T03:27:09.409Z,5.20
2023-03-31T03:29:44.105Z,5.80
2023-03-31T03:32:12.538Z,36.70
2023-03-31T03:35:01.867Z,15.60
2023-03-31T03:37:35.434Z,20.60
2023-03-31T03:40:06.018Z,12.80
2023-03-31T03:42:41.796Z,9.00
2023-03-31T03:45:22.090Z,6.40
2023-03-31T03:50:45.087Z,5.10
2023-03-31T03:53:44.246Z,5.30
2023-03-31T03:56:32.897Z,5.90
2023-03-31T03:59:11.222Z,5.80
2023-03-31T04:02:01.143Z,5.90
2023-03-31T04:04:31.959Z,6.50
2023-03-31T04:07:14.297Z,6.40
2023-03-31T04:10:23.090Z,7.10
2023-03-31T04:13:00.838Z,7.10
2023-03-31T04:15:31.582Z,6.50
2023-03-31T04:18:06.358Z,6.40
2023-03-31T04:20:39.949Z,6.40
2023-03-31T04:23:11.142Z,8.60
2023-03-31T04:25:47.358Z,8.60
2023-03-31T04:28:20.130Z,9.90
2023-03-31T04:30:51.149Z,7.70
2023-03-31T04:34:02.882Z,6.60
2023-03-31T04:36:56.262Z,10.00
2023-03-31T04:39:30.767Z,11.40
2023-03-31T04:42:11.691Z,11.20
2023-03-31T04:44:48.316Z,8.50
2023-03-31T04:47:39.522Z,7.60
2023-03-31T04:50:28.551Z,8.80
2023-03-31T04:53:02.760Z,10.00
2023-03-31T04:55:33.924Z,8.80
2023-03-31T04:58:26.689Z,6.80
2023-03-31T05:00:58.258Z,6.00
2023-03-31T05:03:29.754Z,6.90
2023-03-31T05:06:01.222Z,6.70
2023-03-31T05:08:35.706Z,6.40
2023-03-31T05:11:35.483Z,5.90
2023-03-31T05:14:04.357Z,6.40
2023-03-31T05:16:59.423Z,8.90
2023-03-31T05:19:50.408Z,7.70
2023-03-31T05:22:20.828Z,6.60
2023-03-31T05:24:56.270Z,11.00
2023-03-31T05:27:35.673Z,9.50
2023-03-31T05:30:16.689Z,10.20
2023-03-31T05:32:54.895Z,8.10
2023-03-31T05:35:26.864Z,33.30
2023-03-31T05:38:17.424Z,11.90
2023-03-31T05:41:00.949Z,9.30
2023-03-31T05:43:34.649Z,7.50
2023-03-31T05:46:05.735Z,7.40
2023-03-31T05:48:46.245Z,7.10
2023-03-31T05:51:36.976Z,6.30
2023-03-31T05:54:06.509Z,7.50
2023-03-31T05:56:37.812Z,7.90
2023-03-31T05:59:06.605Z,7.60
2023-03-31T06:04:16.529Z,6.90
2023-03-31T06:07:08.706Z,6.40
2023-03-31T06:09:57.166Z,7.30
2023-03-31T06:12:28.933Z,6.80
2023-03-31T06:15:02.007Z,6.40
2023-03-31T06:17:45.053Z,6.60
2023-03-31T06:20:28.155Z,6.30
2023-03-31T06:23:03.797Z,4.60
2023-03-31T06:25:47.876Z,6.60
2023-03-31T06:28:42.841Z,5.90
2023-03-31T06:31:21.870Z,5.30
2023-03-31T06:33:56.472Z,5.70
2023-03-31T06:36:48.831Z,6.20
2023-03-31T06:39:28.807Z,5.20
2023-03-31T06:42:05.138Z,5.70
2023-03-31T06:44:43.435Z,6.10
2023-03-31T06:47:14.431Z,5.90
2023-03-31T06:49:46.378Z,5.60
2023-03-31T06:52:18.023Z,6.20
2023-03-31T06:55:02.874Z,6.60
2023-03-31T06:58:10.335Z,6.20
2023-03-31T07:00:59.106Z,7.30
2023-03-31T07:03:35.429Z,7.20
2023-03-31T07:06:27.024Z,6.70
2023-03-31T07:09:27.091Z,7.00
2023-03-31T07:11:58.498Z,6.50
2023-03-31T07:15:09.396Z,6.80
2023-03-31T07:18:02.281Z,7.20
2023-03-31T07:23:48.243Z,6.20
2023-03-31T07:26:19.489Z,7.40
2023-03-31T07:28:47.787Z,8.00
2023-03-31T07:31:18.766Z,9.10
2023-03-31T07:36:40.984Z,6.00
2023-03-31T07:39:51.918Z,7.80
2023-03-31T07:42:38.155Z,7.10
2023-03-31T07:45:26.941Z,6.30
2023-03-31T07:48:18.640Z,8.70
2023-03-31T07:50:57.532Z,6.80
2023-03-31T07:53:52.611Z,6.90
2023-03-31T07:56:24.738Z,7.00
2023-03-31T07:58:56.052Z,7.20
2023-03-31T08:01:46.152Z,7.30
2023-03-31T08:04:20.879Z,7.60
2023-03-31T08:06:54.445Z,7.60
2023-03-31T08:09:35.058Z,6.50
2023-03-31T08:12:06.472Z,7.60
2023-03-31T08:14:54.996Z,6.90
2023-03-31T08:17:53.408Z,6.90
2023-03-31T08:20:24.477Z,9.80
2023-03-31T08:23:09.149Z,7.00
2023-03-31T08:25:43.690Z,6.90
2023-03-31T08:28:20.161Z,7.50
2023-03-31T08:30:53.301Z,7.80
2023-03-31T08:33:21.738Z,7.60
2023-03-31T08:35:57.060Z,8.60
2023-03-31T08:38:28.143Z,6.00
2023-03-31T08:41:00.575Z,6.60
2023-03-31T08:43:37.170Z,10.10
2023-03-31T08:46:38.692Z,8.50
2023-03-31T08:49:07.482Z,10.70
2023-03-31T08:51:41.956Z,7.00
2023-03-31T08:54:28.889Z,9.60
2023-03-31T08:57:08.356Z,13.80
2023-03-31T08:59:41.235Z,7.70
2023-03-31T09:02:18.943Z,9.30
2023-03-31T09:05:15.308Z,8.40
2023-03-31T09:08:15.215Z,8.40
2023-03-31T09:10:56.701Z,9.50
2023-03-31T09:13:24.819Z,9.20
2023-03-31T09:16:00.432Z,9.80
2023-03-31T09:18:46.577Z,8.20
2023-03-31T09:21:31.973Z,13.10
2023-03-31T09:24:21.649Z,8.20
2023-03-31T09:26:55.017Z,8.10
2023-03-31T09:29:31.440Z,10.20
2023-03-31T09:32:14.477Z,11.90
2023-03-31T09:34:43.502Z,10.20
2023-03-31T09:37:12.168Z,8.60
2023-03-31T09:39:41.119Z,6.60
2023-03-31T09:42:12.647Z,7.30
2023-03-31T09:44:47.715Z,7.20
2023-03-31T09:47:34.862Z,4.80
2023-03-31T09:50:06.442Z,5.00
2023-03-31T09:52:42.952Z,5.50
2023-03-31T09:55:39.466Z,5.90
2023-03-31T09:58:28.012Z,4.70
2023-03-31T10:01:01.962Z,5.00
2023-03-31T10:04:10.624Z,5.60
2023-03-31T10:06:52.540Z,4.40
2023-03-31T10:09:25.110Z,3.80
2023-03-31T10:12:05.344Z,4.30
2023-03-31T10:14:51.822Z,4.20
2023-03-31T10:17:53.828Z,3.90
2023-03-31T10:20:43.516Z,3.70
2023-03-31T10:23:33.615Z,4.60
2023-03-31T10:26:24.061Z,4.60
2023-03-31T10:29:02.243Z,4.00
2023-03-31T10:32:09.609Z,3.80
2023-03-31T10:35:06.264Z,3.70
2023-03-31T10:37:48.256Z,3.90
2023-03-31T10:40:23.807Z,4.10
2023-03-31T10:43:04.380Z,4.00
2023-03-31T10:45:52.823Z,4.80
2023-03-31T10:48:26.634Z,6.00
2023-03-31T10:51:04.996Z,5.20
2023-03-31T10:54:10.571Z,5.50
2023-03-31T10:56:49.306Z,5.50
2023-03-31T10:59:30.907Z,5.40
2023-03-31T11:02:05.405Z,6.20
2023-03-31T11:04:57.144Z,5.80
2023-03-31T11:07:42.620Z,5.80
2023-03-31T11:10:20.521Z,7.00
2023-03-31T11:13:21.133Z,7.80
2023-03-31T11:16:32.291Z,7.30
2023-03-31T11:19:17.401Z,7.80
2023-03-31T11:21:54.168Z,7.90
2023-03-31T11:24:28.467Z,5.60
2023-03-31T11:27:20.474Z,5.10
2023-03-31T11:29:57.595Z,5.60
2023-03-31T11:32:54.461Z,5.70
2023-03-31T11:35:28.756Z,6.80
2023-03-31T11:38:16.171Z,8.00
2023-03-31T11:40:56.832Z,10.20
2023-03-31T11:43:31.374Z,7.20
2023-03-31T11:46:06.020Z,6.90
2023-03-31T11:48:41.771Z,6.70
2023-03-31T11:51:22.212Z,10.10
2023-03-31T11:54:13.928Z,6.80
2023-03-31T11:56:52.905Z,4.90
2023-03-31T11:59:22.616Z,8.00
2023-03-31T12:02:02.350Z,7.10
2023-03-31T12:04:44.624Z,6.20
2023-03-31T12:07:29.595Z,7.80
2023-03-31T12:10:15.993Z,6.20
2023-03-31T12:12:46.884Z,4.70
2023-03-31T12:15:53.782Z,4.00
2023-03-31T12:18:31.593Z,5.60
2023-03-31T12:21:40.206Z,4.70
2023-03-31T12:24:29.095Z,5.70
2023-03-31T12:27:07.895Z,4.10
2023-03-31T12:29:53.292Z,4.60
2023-03-31T12:32:26.827Z,3.60
2023-03-31T12:35:02.168Z,4.60
2023-03-31T12:37:48.498Z,6.80
2023-03-31T12:40:22.138Z,10.70
2023-03-31T12:43:01.783Z,10.50
2023-03-31T12:45:31.531Z,4.80
2023-03-31T12:48:21.309Z,3.60
2023-03-31T12:51:01.691Z,3.00
2023-03-31T12:53:41.974Z,3.30
2023-03-31T12:56:10.398Z,5.50
2023-03-31T12:58:40.050Z,5.90
2023-03-31T13:01:18.928Z,5.40
2023-03-31T13:03:47.391Z,12.10
2023-03-31T13:06:28.136Z,8.00
2023-03-31T13:09:08.424Z,5.20
2023-03-31T13:11:38.928Z,5.10
2023-03-31T13:14:38.141Z,7.10
2023-03-31T13:17:14.732Z,11.20
2023-03-31T13:19:47.442Z,5.50
2023-03-31T13:22:57.292Z,5.60
2023-03-31T13:25:34.567Z,5.70
2023-03-31T13:28:17.791Z,5.30
2023-03-31T13:30:47.014Z,4.30
2023-03-31T13:33:16.386Z,14.40
2023-03-31T13:35:48.147Z,4.70
2023-03-31T13:38:44.554Z,21.00
2023-03-31T13:41:23.911Z,7.60
2023-03-31T13:44:06.879Z,8.30
2023-03-31T13:46:52.184Z,8.90
2023-03-31T13:49:43.929Z,6.80
2023-03-31T13:52:12.878Z,9.80
2023-03-31T13:55:07.117Z,7.00
2023-03-31T13:58:29.970Z,11.00
2023-03-31T14:01:24.970Z,8.80
2023-03-31T14:04:07.248Z,13.50
2023-03-31T14:07:06.061Z,5.80
2023-03-31T14:09:41.253Z,12.90
2023-03-31T14:12:30.357Z,7.80
2023-03-31T14:15:04.085Z,5.40
2023-03-31T14:17:38.977Z,6.50
2023-03-31T14:20:10.808Z,10.40
2023-03-31T14:22:48.139Z,5.20
2023-03-31T14:25:16.427Z,6.30
2023-03-31T14:28:18.688Z,5.60
2023-03-31T14:31:04.788Z,3.70
2023-03-31T14:34:03.057Z,17.70
2023-03-31T14:36:40.405Z,4.20
2023-03-31T14:39:30.357Z,5.00
2023-03-31T14:42:00.653Z,5.70
2023-03-31T14:44:29.136Z,7.40
2023-03-31T14:46:58.691Z,5.90
2023-03-31T14:49:34.632Z,6.30
2023-03-31T14:52:13.032Z,11.40
2023-03-31T14:54:52.891Z,6.40
2023-03-31T14:57:29.045Z,7.00
2023-03-31T14:59:58.072Z,4.20
2023-03-31T15:02:38.709Z,4.40
2023-03-31T15:05:41.000Z,25.50
2023-03-31T15:08:16.989Z,5.50
2023-03-31T15:10:50.358Z,8.60
2023-03-31T15:13:46.858Z,9.80
2023-03-31T15:16:32.120Z,7.20
2023-03-31T15:19:05.916Z,4.90
2023-03-31T15:21:36.897Z,9.20
2023-03-31T15:24:05.587Z,8.60
2023-03-31T15:26:41.687Z,11.80
2023-03-31T15:29:23.078Z,10.60
2023-03-31T15:31:51.520Z,10.00
2023-03-31T15:34:33.493Z,4.70
2023-03-31T15:37:02.563Z,5.90
2023-03-31T15:39:32.522Z,6.30
2023-03-31T15:42:05.439Z,6.70
2023-03-31T15:44:50.032Z,4.70
2023-03-31T15:47:27.596Z,6.40
2023-03-31T15:49:58.246Z,5.80
2023-03-31T15:52:31.460Z,6.20
2023-03-31T15:55:02.791Z,3.30
2023-03-31T15:57:35.217Z,3.40
2023-03-31T16:00:08.010Z,5.30
2023-03-31T16:02:44.084Z,4.60
2023-03-31T16:05:53.233Z,6.60
2023-03-31T16:08:28.746Z,6.70
2023-03-31T16:11:04.079Z,11.60
2023-03-31T16:13:32.828Z,12.20
2023-03-31T16:16:07.573Z,22.70
2023-03-31T16:18:58.049Z,15.00
2023-03-31T16:21:28.975Z,8.30
2023-03-31T16:23:58.588Z,11.00
2023-03-31T16:26:28.470Z,13.20
2023-03-31T16:29:16.958Z,10.30
2023-03-31T16:31:45.874Z,9.50
2023-03-31T16:34:27.308Z,5.90
2023-03-31T16:36:58.015Z,8.60
2023-03-31T16:39:26.367Z,12.50
2023-03-31T16:41:54.713Z,21.10
2023-03-31T16:44:36.634Z,19.90
2023-03-31T16:47:04.870Z,13.90
2023-03-31T16:49:35.832Z,13.90
2023-03-31T16:52:09.037Z,18.70
2023-03-31T16:54:41.916Z,16.70
2023-03-31T16:57:13.998Z,17.10
2023-03-31T16:59:42.705Z,32.70
2023-03-31T17:02:11.942Z,28.00
2023-03-31T17:04:40.344Z,44.90
2023-03-31T17:07:17.646Z,24.30
2023-03-31T17:09:48.454Z,45.10
2023-03-31T17:12:16.548Z,21.00
2023-03-31T17:14:46.978Z,35.30
2023-03-31T17:17:17.750Z,35.90
2023-03-31T17:22:17.457Z,39.20
2023-03-31T17:24:48.845Z,14.10
2023-03-31T17:27:17.169Z,12.30
2023-03-31T17:29:59.043Z,15.60
2023-03-31T17:32:27.841Z,13.70
2023-03-31T17:34:59.188Z,26.90
2023-03-31T17:37:27.299Z,49.00
2023-03-31T17:39:55.828Z,18.80
2023-03-31T17:42:32.754Z,34.90
2023-03-31T17:45:01.322Z,43.90
2023-03-31T17:47:34.340Z,58.10
2023-03-31T17:50:22.891Z,43.50
2023-03-31T17:52:51.830Z,17.10
2023-03-31T17:55:23.168Z,14.60
2023-03-31T17:57:56.359Z,10.50
2023-03-31T18:00:24.666Z,8.70
2023-03-31T18:03:02.188Z,11.20
2023-03-31T18:05:32.366Z,13.00
2023-03-31T18:08:04.058Z,24.20
2023-03-31T18:10:42.770Z,18.80
2023-03-31T18:13:16.692Z,25.70
2023-03-31T18:15:53.795Z,19.80
2023-03-31T18:18:23.358Z,15.30
2023-03-31T18:24:31.346Z,10.30
2023-03-31T18:27:01.585Z,12.20
2023-03-31T18:29:28.497Z,12.40
2023-03-31T18:31:55.644Z,13.30
2023-03-31T18:34:25.773Z,18.30
2023-03-31T18:36:52.916Z,28.50
2023-03-31T18:39:22.368Z,32.30
2023-03-31T18:41:53.585Z,14.50
2023-03-31T18:44:23.563Z,8.80
2023-03-31T18:46:50.567Z,9.60
2023-03-31T18:49:19.540Z,14.10
2023-03-31T18:51:46.240Z,15.30
2023-03-31T18:54:15.535Z,13.20
2023-03-31T18:56:42.421Z,14.70
2023-03-31T18:59:09.784Z,11.40
2023-03-31T19:01:41.747Z,15.60
2023-03-31T19:04:33.844Z,8.20
2023-03-31T19:07:06.336Z,13.90
2023-03-31T19:09:35.667Z,9.40
2023-03-31T19:12:08.694Z,7.80
2023-03-31T19:14:46.674Z,22.60
2023-03-31T19:17:13.334Z,26.30
2023-03-31T19:19:50.717Z,31.50
2023-03-31T19:22:22.764Z,24.40
2023-03-31T19:24:49.924Z,24.70
2023-03-31T19:27:25.861Z,33.70
2023-03-31T19:30:05.424Z,34.10
2023-03-31T19:32:32.381Z,38.60
2023-03-31T19:35:06.701Z,35.80
2023-03-31T19:37:33.441Z,32.20
2023-03-31T19:40:02.472Z,23.50
2023-03-31T19:42:31.709Z,23.00
2023-03-31T19:45:04.449Z,23.30
2023-03-31T19:47:47.031Z,17.80
2023-03-31T19:50:16.401Z,17.20
2023-03-31T19:52:46.769Z,17.40
2023-03-31T19:55:15.603Z,14.30
2023-03-31T19:57:42.543Z,10.70
2023-03-31T20:00:10.257Z,9.20
2023-03-31T20:02:37.396Z,8.90
2023-03-31T20:05:07.809Z,9.90
2023-03-31T20:07:34.643Z,12.10
2023-03-31T20:10:03.780Z,8.40
2023-03-31T20:12:30.479Z,6.70
2023-03-31T20:14:59.677Z,6.70
2023-03-31T20:17:26.726Z,6.10
2023-03-31T20:19:56.680Z,5.80
2023-03-31T20:22:26.024Z,7.40
2023-03-31T20:25:05.356Z,7.10
2023-03-31T20:27:32.297Z,5.10
2023-03-31T20:30:09.277Z,5.20
2023-03-31T20:32:38.083Z,3.80
2023-03-31T20:35:06.099Z,3.70
2023-03-31T20:37:32.776Z,3.50
2023-03-31T20:40:04.192Z,3.20
2023-03-31T20:42:35.782Z,3.00
2023-03-31T20:45:02.685Z,2.70
2023-03-31T20:47:31.506Z,2.70
2023-03-31T20:49:58.890Z,2.70
2023-03-31T20:52:38.225Z,2.00
2023-03-31T20:55:08.189Z,4.30
2023-03-31T20:57:55.544Z,6.80
2023-03-31T21:00:25.593Z,6.10
2023-03-31T21:03:20.602Z,6.60
2023-03-31T21:06:10.895Z,9.40
2023-03-31T21:08:51.887Z,6.80
2023-03-31T21:11:18.947Z,15.50
2023-03-31T21:13:48.367Z,8.60
2023-03-31T21:16:15.723Z,7.50
2023-03-31T21:18:59.053Z,6.70
2023-03-31T21:21:28.467Z,6.20
2023-03-31T21:23:59.925Z,5.20
2023-03-31T21:26:38.049Z,5.10
2023-03-31T21:29:05.185Z,10.80
2023-03-31T21:31:45.455Z,7.70
2023-03-31T21:34:12.464Z,10.30
2023-03-31T21:36:39.214Z,4.30
2023-03-31T21:39:09.175Z,4.70
2023-03-31T21:41:37.363Z,9.00
2023-03-31T21:44:07.131Z,9.00
2023-03-31T21:46:40.431Z,7.30
2023-03-31T21:49:07.374Z,10.80
2023-03-31T21:51:44.522Z,11.00
2023-03-31T21:54:22.060Z,9.20
2023-03-31T21:56:49.029Z,9.80
2023-03-31T21:59:15.835Z,6.90
2023-03-31T22:01:45.702Z,3.10
2023-03-31T22:04:18.726Z,4.90
2023-03-31T22:06:45.882Z,4.60
2023-03-31T22:09:18.357Z,4.10
2023-03-31T22:11:45.854Z,4.10
2023-03-31T22:14:12.507Z,5.70
2023-03-31T22:16:41.994Z,5.90
2023-03-31T22:19:14.425Z,6.10
2023-03-31T22:21:43.021Z,5.50
2023-03-31T22:24:10.827Z,5.70
2023-03-31T22:26:37.692Z,5.30
2023-03-31T22:29:07.562Z,4.80
2023-03-31T22:31:46.165Z,5.90
2023-03-31T22:34:27.122Z,6.20
2023-03-31T22:36:54.004Z,5.60
2023-03-31T22:39:23.219Z,5.00
2023-03-31T22:41:50.280Z,4.90
2023-03-31T22:44:19.426Z,5.60
2023-03-31T22:46:46.057Z,5.30
2023-03-31T22:49:26.822Z,6.40
2023-03-31T22:51:53.860Z,6.20
2023-03-31T22:54:20.733Z,6.70
2023-03-31T22:56:49.652Z,6.00
2023-03-31T22:59:19.636Z,5.60
2023-03-31T23:01:53.649Z,5.00
2023-03-31T23:04:23.751Z,5.60
2023-03-31T23:07:11.852Z,6.00
2023-03-31T23:09:41.392Z,9.50
2023-03-31T23:12:08.168Z,7.00
2023-03-31T23:14:42.566Z,6.30
2023-03-31T23:17:12.686Z,6.70
2023-03-31T23:19:40.202Z,6.90
2023-03-31T23:22:07.227Z,8.00
2023-03-31T23:24:34.123Z,7.70
2023-03-31T23:27:03.890Z,7.10
2023-03-31T23:29:33.029Z,6.20
2023-03-31T23:32:05.530Z,7.60
2023-03-31T23:34:42.899Z,6.30
2023-03-31T23:37:10.763Z,6.80
2023-03-31T23:39:38.172Z,5.40
2023-03-31T23:42:15.387Z,5.90
2023-03-31T23:44:41.831Z,5.60
2023-03-31T23:47:08.484Z,5.90
2023-03-31T23:49:35.186Z,5.00
2023-03-31T23:52:16.479Z,4.90
2023-03-31T23:54:45.871Z,4.80
2023-03-31T23:57:15.159Z,5.00
2023-03-31T23:59:44.478Z,5.70
